ENRA

Mo i Rana , Røssvoll Airport

Mo i Rana, Norway
METAR ENRA 242220Z 19003KT CAVOK 08/01 Q1025
Observed Flight Rules
May-24 @ 22:20 UTC (3 hours ago) Visual Flight Rules
Wind Visibility Clouds
190° at 3 knots 10,000+ meters
  • Clear skies
Temperatures Readings
Current 8°C / 46°F
Dewpoint 1°C / 34°F
Humidity 62%
Altimeter 30.27" Hg
Pressure 1025 hPa
Elevation 70
METAR ENRA 242220Z 19003KT CAVOK 08/01 Q1025
Observed Flight Rules
May-24 @ 22:20 UTC
(3 hours ago)
VFR
Wind Visibility
190° at 3 knots 10,000+ meters
Clouds
  • Clear skies
Temperature Dewpoint
8°C / 46°F 1°C / 34°F
Humidity Altimeter Pressure
62% 30.27" Hg 1025 hPa